sensor_id;sensor_type;location;lat;lon;timestamp;pressure;altitude;pressure_sealevel;temperature;humidity
21728;BME280;11026;50.560;17.852;2023-07-31T00:02:18;99206.00;;;16.93;100.00
21728;BME280;11026;50.560;17.852;2023-07-31T00:04:45;99200.06;;;16.89;100.00
21728;BME280;11026;50.560;17.852;2023-07-31T00:07:15;99207.34;;;16.87;100.00
21728;BME280;11026;50.560;17.852;2023-07-31T00:09:43;99220.16;;;16.82;100.00
21728;BME280;11026;50.560;17.852;2023-07-31T00:12:12;99219.44;;;16.80;100.00
21728;BME280;11026;50.560;17.852;2023-07-31T00:14:39;99221.06;;;16.83;100.00
21728;BME280;11026;50.560;17.852;2023-07-31T00:17:06;99220.69;;;16.87;100.00
21728;BME280;11026;50.560;17.852;2023-07-31T00:19:34;99229.94;;;16.94;100.00
21728;BME280;11026;50.560;17.852;2023-07-31T00:22:01;99224.84;;;16.91;100.00
21728;BME280;11026;50.560;17.852;2023-07-31T00:24:35;99225.84;;;17.02;100.00
21728;BME280;11026;50.560;17.852;2023-07-31T00:27:04;99229.44;;;16.89;100.00
21728;BME280;11026;50.560;17.852;2023-07-31T00:29:31;99222.91;;;16.93;100.00
21728;BME280;11026;50.560;17.852;2023-07-31T00:31:59;99228.47;;;16.90;100.00
21728;BME280;11026;50.560;17.852;2023-07-31T00:34:26;99226.75;;;16.89;100.00
21728;BME280;11026;50.560;17.852;2023-07-31T00:36:54;99227.25;;;16.83;100.00
21728;BME280;11026;50.560;17.852;2023-07-31T00:39:21;99225.97;;;16.76;100.00
21728;BME280;11026;50.560;17.852;2023-07-31T00:41:49;99231.94;;;16.80;100.00
21728;BME280;11026;50.560;17.852;2023-07-31T00:44:17;99227.34;;;16.82;100.00
21728;BME280;11026;50.560;17.852;2023-07-31T00:46:45;99223.63;;;16.71;100.00
21728;BME280;11026;50.560;17.852;2023-07-31T00:49:12;99226.41;;;16.70;100.00
21728;BME280;11026;50.560;17.852;2023-07-31T00:51:46;99228.75;;;16.75;100.00
21728;BME280;11026;50.560;17.852;2023-07-31T00:54:20;99231.09;;;16.79;100.00
21728;BME280;11026;50.560;17.852;2023-07-31T00:56:47;99224.78;;;16.80;100.00
21728;BME280;11026;50.560;17.852;2023-07-31T00:59:15;99226.22;;;16.73;100.00
21728;BME280;11026;50.560;17.852;2023-07-31T01:01:46;99226.63;;;16.80;100.00
21728;BME280;11026;50.560;17.852;2023-07-31T01:04:13;99230.66;;;16.72;100.00
21728;BME280;11026;50.560;17.852;2023-07-31T01:07:09;99224.88;;;16.79;100.00
21728;BME280;11026;50.560;17.852;2023-07-31T01:09:55;99235.91;;;16.74;100.00
21728;BME280;11026;50.560;17.852;2023-07-31T01:12:27;99222.78;;;16.71;100.00
21728;BME280;11026;50.560;17.852;2023-07-31T01:15:04;99226.22;;;16.73;100.00
21728;BME280;11026;50.560;17.852;2023-07-31T01:17:32;99235.56;;;16.79;100.00
21728;BME280;11026;50.560;17.852;2023-07-31T01:20:04;99221.19;;;16.68;100.00
21728;BME280;11026;50.560;17.852;2023-07-31T01:26:03;99232.41;;;16.74;100.00
21728;BME280;11026;50.560;17.852;2023-07-31T01:28:47;99231.31;;;16.76;100.00
21728;BME280;11026;50.560;17.852;2023-07-31T01:31:23;99228.88;;;16.73;100.00
21728;BME280;11026;50.560;17.852;2023-07-31T01:33:53;99228.34;;;16.68;100.00
21728;BME280;11026;50.560;17.852;2023-07-31T01:36:22;99237.84;;;16.72;100.00
21728;BME280;11026;50.560;17.852;2023-07-31T01:38:50;99231.72;;;16.70;100.00
21728;BME280;11026;50.560;17.852;2023-07-31T01:41:18;99230.78;;;16.71;100.00
21728;BME280;11026;50.560;17.852;2023-07-31T01:43:47;99235.06;;;16.74;100.00
21728;BME280;11026;50.560;17.852;2023-07-31T01:46:16;99236.88;;;16.73;100.00
21728;BME280;11026;50.560;17.852;2023-07-31T01:48:45;99234.81;;;16.53;100.00
21728;BME280;11026;50.560;17.852;2023-07-31T01:51:13;99240.81;;;16.43;100.00
21728;BME280;11026;50.560;17.852;2023-07-31T01:53:41;99238.47;;;16.39;100.00
21728;BME280;11026;50.560;17.852;2023-07-31T01:56:08;99232.19;;;16.27;100.00
21728;BME280;11026;50.560;17.852;2023-07-31T01:58:36;99229.72;;;16.37;100.00
21728;BME280;11026;50.560;17.852;2023-07-31T02:01:03;99228.06;;;16.47;100.00
21728;BME280;11026;50.560;17.852;2023-07-31T02:03:30;99232.63;;;16.58;100.00
21728;BME280;11026;50.560;17.852;2023-07-31T02:05:58;99231.84;;;16.44;100.00
21728;BME280;11026;50.560;17.852;2023-07-31T02:08:25;99239.72;;;16.46;100.00
21728;BME280;11026;50.560;17.852;2023-07-31T02:10:53;99234.09;;;16.38;100.00
21728;BME280;11026;50.560;17.852;2023-07-31T02:13:21;99232.44;;;16.24;100.00
21728;BME280;11026;50.560;17.852;2023-07-31T02:15:54;99239.69;;;16.22;100.00
21728;BME280;11026;50.560;17.852;2023-07-31T02:18:22;99231.16;;;16.17;100.00
21728;BME280;11026;50.560;17.852;2023-07-31T02:20:50;99238.97;;;16.20;100.00
21728;BME280;11026;50.560;17.852;2023-07-31T02:23:19;99234.47;;;16.20;100.00
21728;BME280;11026;50.560;17.852;2023-07-31T02:25:47;99239.22;;;16.41;100.00
21728;BME280;11026;50.560;17.852;2023-07-31T02:28:14;99243.72;;;16.40;100.00
21728;BME280;11026;50.560;17.852;2023-07-31T02:30:44;99242.63;;;16.43;100.00
21728;BME280;11026;50.560;17.852;2023-07-31T02:33:14;99247.09;;;16.42;100.00
21728;BME280;11026;50.560;17.852;2023-07-31T02:35:44;99248.53;;;16.35;100.00
21728;BME280;11026;50.560;17.852;2023-07-31T02:38:12;99248.28;;;16.38;100.00
21728;BME280;11026;50.560;17.852;2023-07-31T02:40:42;99243.84;;;16.26;100.00
21728;BME280;11026;50.560;17.852;2023-07-31T02:43:15;99250.25;;;16.36;100.00
21728;BME280;11026;50.560;17.852;2023-07-31T02:45:44;99255.97;;;16.43;100.00
21728;BME280;11026;50.560;17.852;2023-07-31T02:48:11;99254.47;;;16.52;100.00
21728;BME280;11026;50.560;17.852;2023-07-31T02:50:39;99251.72;;;16.40;100.00
21728;BME280;11026;50.560;17.852;2023-07-31T02:53:06;99246.72;;;16.36;100.00
21728;BME280;11026;50.560;17.852;2023-07-31T02:55:34;99244.22;;;16.45;100.00
21728;BME280;11026;50.560;17.852;2023-07-31T02:58:02;99256.38;;;16.50;100.00
21728;BME280;11026;50.560;17.852;2023-07-31T03:00:30;99250.75;;;16.41;100.00
21728;BME280;11026;50.560;17.852;2023-07-31T03:02:58;99251.59;;;16.42;100.00
21728;BME280;11026;50.560;17.852;2023-07-31T03:05:26;99248.28;;;16.38;100.00
21728;BME280;11026;50.560;17.852;2023-07-31T03:07:54;99247.75;;;16.46;100.00
21728;BME280;11026;50.560;17.852;2023-07-31T03:10:21;99250.16;;;16.25;100.00
21728;BME280;11026;50.560;17.852;2023-07-31T03:12:49;99262.97;;;16.20;100.00
21728;BME280;11026;50.560;17.852;2023-07-31T03:15:16;99254.44;;;16.15;100.00
21728;BME280;11026;50.560;17.852;2023-07-31T03:17:43;99258.16;;;16.25;100.00
21728;BME280;11026;50.560;17.852;2023-07-31T03:20:12;99262.53;;;16.26;100.00
21728;BME280;11026;50.560;17.852;2023-07-31T03:22:39;99260.91;;;16.36;100.00
21728;BME280;11026;50.560;17.852;2023-07-31T03:25:07;99260.81;;;16.25;100.00
21728;BME280;11026;50.560;17.852;2023-07-31T03:27:36;99266.06;;;16.14;100.00
21728;BME280;11026;50.560;17.852;2023-07-31T03:30:05;99260.44;;;16.06;100.00
21728;BME280;11026;50.560;17.852;2023-07-31T03:32:32;99265.25;;;16.01;100.00
21728;BME280;11026;50.560;17.852;2023-07-31T03:35:00;99267.91;;;16.01;100.00
21728;BME280;11026;50.560;17.852;2023-07-31T03:37:28;99269.09;;;15.96;100.00
21728;BME280;11026;50.560;17.852;2023-07-31T03:39:56;99269.81;;;15.98;100.00
21728;BME280;11026;50.560;17.852;2023-07-31T03:42:24;99274.81;;;16.03;100.00
21728;BME280;11026;50.560;17.852;2023-07-31T03:44:51;99268.63;;;16.03;100.00
21728;BME280;11026;50.560;17.852;2023-07-31T03:47:19;99271.06;;;16.18;100.00
21728;BME280;11026;50.560;17.852;2023-07-31T03:49:46;99270.75;;;16.23;100.00
21728;BME280;11026;50.560;17.852;2023-07-31T03:52:14;99268.72;;;16.27;100.00
21728;BME280;11026;50.560;17.852;2023-07-31T03:54:47;99280.78;;;16.32;100.00
21728;BME280;11026;50.560;17.852;2023-07-31T03:57:14;99283.50;;;16.56;100.00
21728;BME280;11026;50.560;17.852;2023-07-31T03:59:42;99292.41;;;16.81;100.00
21728;BME280;11026;50.560;17.852;2023-07-31T04:02:33;99281.16;;;16.88;100.00
21728;BME280;11026;50.560;17.852;2023-07-31T04:05:02;99291.56;;;16.80;100.00
21728;BME280;11026;50.560;17.852;2023-07-31T04:07:29;99288.47;;;16.74;100.00
21728;BME280;11026;50.560;17.852;2023-07-31T04:09:57;99293.06;;;16.71;100.00
21728;BME280;11026;50.560;17.852;2023-07-31T04:12:26;99294.97;;;16.69;100.00
21728;BME280;11026;50.560;17.852;2023-07-31T04:14:53;99295.09;;;16.68;100.00
21728;BME280;11026;50.560;17.852;2023-07-31T04:17:22;99294.34;;;16.66;100.00
21728;BME280;11026;50.560;17.852;2023-07-31T04:19:49;99295.19;;;16.66;100.00
21728;BME280;11026;50.560;17.852;2023-07-31T04:22:17;99295.84;;;16.83;100.00
21728;BME280;11026;50.560;17.852;2023-07-31T04:24:47;99302.03;;;16.83;100.00
21728;BME280;11026;50.560;17.852;2023-07-31T04:27:15;99305.66;;;16.82;100.00
21728;BME280;11026;50.560;17.852;2023-07-31T04:29:42;99299.66;;;16.91;100.00
21728;BME280;11026;50.560;17.852;2023-07-31T04:32:12;99299.72;;;17.03;100.00
21728;BME280;11026;50.560;17.852;2023-07-31T04:34:39;99295.88;;;17.18;100.00
21728;BME280;11026;50.560;17.852;2023-07-31T04:37:06;99304.47;;;17.10;100.00
21728;BME280;11026;50.560;17.852;2023-07-31T04:39:35;99308.84;;;17.11;100.00
21728;BME280;11026;50.560;17.852;2023-07-31T04:42:03;99296.97;;;17.15;100.00
21728;BME280;11026;50.560;17.852;2023-07-31T04:44:31;99303.31;;;17.26;100.00
21728;BME280;11026;50.560;17.852;2023-07-31T04:46:59;99298.31;;;17.21;100.00
21728;BME280;11026;50.560;17.852;2023-07-31T04:49:28;99292.88;;;17.23;100.00
21728;BME280;11026;50.560;17.852;2023-07-31T04:51:55;99298.38;;;17.32;100.00
21728;BME280;11026;50.560;17.852;2023-07-31T04:54:25;99298.41;;;17.43;100.00
21728;BME280;11026;50.560;17.852;2023-07-31T04:56:53;99302.56;;;17.48;100.00
21728;BME280;11026;50.560;17.852;2023-07-31T04:59:21;99295.75;;;17.43;100.00
21728;BME280;11026;50.560;17.852;2023-07-31T05:01:48;99301.59;;;17.49;100.00
21728;BME280;11026;50.560;17.852;2023-07-31T05:04:15;99302.59;;;17.59;100.00
21728;BME280;11026;50.560;17.852;2023-07-31T05:06:44;99295.75;;;17.43;100.00
21728;BME280;11026;50.560;17.852;2023-07-31T05:09:12;99302.56;;;17.48;100.00
21728;BME280;11026;50.560;17.852;2023-07-31T05:11:39;99298.69;;;17.52;100.00
21728;BME280;11026;50.560;17.852;2023-07-31T05:14:07;99291.91;;;17.59;100.00
21728;BME280;11026;50.560;17.852;2023-07-31T05:16:35;99295.31;;;17.72;100.00
21728;BME280;11026;50.560;17.852;2023-07-31T05:19:04;99287.09;;;17.75;100.00
21728;BME280;11026;50.560;17.852;2023-07-31T05:21:32;99289.97;;;17.72;100.00
21728;BME280;11026;50.560;17.852;2023-07-31T05:23:59;99285.22;;;17.64;100.00
21728;BME280;11026;50.560;17.852;2023-07-31T05:26:29;99280.69;;;17.42;100.00
21728;BME280;11026;50.560;17.852;2023-07-31T05:28:56;99286.25;;;17.39;100.00
21728;BME280;11026;50.560;17.852;2023-07-31T05:31:33;99282.41;;;17.55;100.00
21728;BME280;11026;50.560;17.852;2023-07-31T05:34:01;99283.47;;;17.52;100.00
21728;BME280;11026;50.560;17.852;2023-07-31T05:36:28;99277.03;;;17.43;100.00
21728;BME280;11026;50.560;17.852;2023-07-31T05:38:55;99286.06;;;17.65;100.00
21728;BME280;11026;50.560;17.852;2023-07-31T05:41:23;99278.41;;;17.60;100.00
21728;BME280;11026;50.560;17.852;2023-07-31T05:43:50;99276.56;;;17.61;100.00
21728;BME280;11026;50.560;17.852;2023-07-31T05:46:18;99271.53;;;17.45;100.00
21728;BME280;11026;50.560;17.852;2023-07-31T05:48:46;99266.00;;;17.59;100.00
21728;BME280;11026;50.560;17.852;2023-07-31T05:51:13;99273.66;;;17.64;100.00
21728;BME280;11026;50.560;17.852;2023-07-31T05:53:43;99276.56;;;17.61;100.00
21728;BME280;11026;50.560;17.852;2023-07-31T05:56:11;99275.31;;;17.89;100.00
21728;BME280;11026;50.560;17.852;2023-07-31T05:58:39;99281.16;;;17.83;100.00
21728;BME280;11026;50.560;17.852;2023-07-31T06:01:07;99284.31;;;17.88;100.00
21728;BME280;11026;50.560;17.852;2023-07-31T06:03:35;99291.09;;;17.81;100.00
21728;BME280;11026;50.560;17.852;2023-07-31T06:06:03;99293.41;;;17.85;100.00
21728;BME280;11026;50.560;17.852;2023-07-31T06:08:32;99289.28;;;17.81;100.00
21728;BME280;11026;50.560;17.852;2023-07-31T06:11:00;99293.69;;;17.82;100.00
21728;BME280;11026;50.560;17.852;2023-07-31T06:13:29;99298.13;;;17.70;99.38
21728;BME280;11026;50.560;17.852;2023-07-31T06:15:57;99298.13;;;17.70;99.55
21728;BME280;11026;50.560;17.852;2023-07-31T06:18:26;99299.28;;;17.79;98.99
21728;BME280;11026;50.560;17.852;2023-07-31T06:20:54;99293.69;;;17.93;99.15
21728;BME280;11026;50.560;17.852;2023-07-31T06:23:21;99301.84;;;17.92;97.04
21728;BME280;11026;50.560;17.852;2023-07-31T06:25:55;99302.94;;;18.12;97.22
21728;BME280;11026;50.560;17.852;2023-07-31T06:28:30;99299.31;;;18.24;95.34
21728;BME280;11026;50.560;17.852;2023-07-31T06:30:59;99298.22;;;18.38;94.13
21728;BME280;11026;50.560;17.852;2023-07-31T06:33:27;99299.06;;;18.38;91.29
21728;BME280;11026;50.560;17.852;2023-07-31T06:35:55;99298.94;;;18.40;91.51
21728;BME280;11026;50.560;17.852;2023-07-31T06:38:25;99296.84;;;18.55;89.36
21728;BME280;11026;50.560;17.852;2023-07-31T06:40:53;99300.75;;;18.62;88.76
21728;BME280;11026;50.560;17.852;2023-07-31T06:43:20;99303.75;;;18.68;88.37
21728;BME280;11026;50.560;17.852;2023-07-31T06:45:48;99301.72;;;18.72;86.99
21728;BME280;11026;50.560;17.852;2023-07-31T06:48:18;99295.84;;;18.89;85.42
21728;BME280;11026;50.560;17.852;2023-07-31T06:50:46;99290.50;;;18.89;82.80
21728;BME280;11026;50.560;17.852;2023-07-31T06:53:13;99293.38;;;18.98;84.55
21728;BME280;11026;50.560;17.852;2023-07-31T06:55:41;99298.19;;;19.15;82.84
21728;BME280;11026;50.560;17.852;2023-07-31T06:58:08;99299.81;;;19.38;83.35
21728;BME280;11026;50.560;17.852;2023-07-31T07:00:35;99302.44;;;19.50;79.58
21728;BME280;11026;50.560;17.852;2023-07-31T07:03:03;99292.41;;;19.52;76.32
21728;BME280;11026;50.560;17.852;2023-07-31T07:05:32;99296.91;;;19.62;76.04
21728;BME280;11026;50.560;17.852;2023-07-31T07:08:00;99291.34;;;19.75;76.63
21728;BME280;11026;50.560;17.852;2023-07-31T07:10:28;99294.75;;;19.77;75.59
21728;BME280;11026;50.560;17.852;2023-07-31T07:12:56;99294.53;;;19.90;74.71
21728;BME280;11026;50.560;17.852;2023-07-31T07:15:25;99293.47;;;20.02;74.43
21728;BME280;11026;50.560;17.852;2023-07-31T07:17:53;99289.03;;;20.22;73.94
21728;BME280;11026;50.560;17.852;2023-07-31T07:20:21;99287.97;;;20.34;71.81
21728;BME280;11026;50.560;17.852;2023-07-31T07:45:53;99282.63;;;20.75;66.14
21728;BME280;11026;50.560;17.852;2023-07-31T07:48:21;99278.56;;;21.09;65.49
21728;BME280;11026;50.560;17.852;2023-07-31T07:50:50;99284.78;;;21.10;64.55
21728;BME280;11026;50.560;17.852;2023-07-31T07:53:19;99279.00;;;21.24;64.85
21728;BME280;11026;50.560;17.852;2023-07-31T07:55:47;99270.34;;;21.21;63.59
21728;BME280;11026;50.560;17.852;2023-07-31T07:58:14;99273.06;;;21.30;65.53
21728;BME280;11026;50.560;17.852;2023-07-31T08:00:49;99268.66;;;21.49;62.42
21728;BME280;11026;50.560;17.852;2023-07-31T08:03:17;99265.25;;;21.27;59.35
21728;BME280;11026;50.560;17.852;2023-07-31T08:05:51;99267.97;;;21.47;61.63
21728;BME280;11026;50.560;17.852;2023-07-31T08:08:18;99269.16;;;21.81;61.28
21728;BME280;11026;50.560;17.852;2023-07-31T08:10:46;99268.31;;;21.81;59.02
21728;BME280;11026;50.560;17.852;2023-07-31T08:13:13;99269.88;;;21.83;61.24
21728;BME280;11026;50.560;17.852;2023-07-31T08:15:41;99264.91;;;21.89;58.48
21728;BME280;11026;50.560;17.852;2023-07-31T08:18:10;99270.56;;;21.85;57.18
21728;BME280;11026;50.560;17.852;2023-07-31T08:20:40;99257.47;;;22.20;58.68
21728;BME280;11026;50.560;17.852;2023-07-31T08:23:10;99257.38;;;22.02;58.81
21728;BME280;11026;50.560;17.852;2023-07-31T08:25:45;99269.53;;;22.06;57.16
21728;BME280;11026;50.560;17.852;2023-07-31T08:28:12;99258.22;;;22.02;58.75
21728;BME280;11026;50.560;17.852;2023-07-31T08:30:42;99268.25;;;22.10;55.27
21728;BME280;11026;50.560;17.852;2023-07-31T08:33:10;99267.69;;;22.16;55.26
21728;BME280;11026;50.560;17.852;2023-07-31T08:35:37;99271.13;;;21.99;55.64
21728;BME280;11026;50.560;17.852;2023-07-31T08:38:04;99264.34;;;21.95;55.78
21728;BME280;11026;50.560;17.852;2023-07-31T08:40:36;99259.22;;;21.92;55.22
21728;BME280;11026;50.560;17.852;2023-07-31T08:43:04;99263.56;;;22.12;54.61
21728;BME280;11026;50.560;17.852;2023-07-31T08:45:33;99264.56;;;22.01;55.07
21728;BME280;11026;50.560;17.852;2023-07-31T08:48:01;99264.13;;;22.25;54.14
21728;BME280;11026;50.560;17.852;2023-07-31T08:50:29;99263.91;;;22.37;51.88
21728;BME280;11026;50.560;17.852;2023-07-31T08:52:58;99258.00;;;22.23;52.39
21728;BME280;11026;50.560;17.852;2023-07-31T08:55:26;99269.69;;;22.14;51.84
21728;BME280;11026;50.560;17.852;2023-07-31T08:57:56;99271.09;;;22.18;53.03
21728;BME280;11026;50.560;17.852;2023-07-31T09:00:25;99260.25;;;22.28;51.47
21728;BME280;11026;50.560;17.852;2023-07-31T09:03:02;99263.31;;;22.43;52.93
21728;BME280;11026;50.560;17.852;2023-07-31T09:05:31;99259.47;;;22.73;53.15
21728;BME280;11026;50.560;17.852;2023-07-31T09:08:00;99252.91;;;22.75;53.45
21728;BME280;11026;50.560;17.852;2023-07-31T09:10:30;99256.31;;;22.77;53.33
21728;BME280;11026;50.560;17.852;2023-07-31T09:12:59;99255.28;;;23.06;52.67
21728;BME280;11026;50.560;17.852;2023-07-31T09:15:27;99257.28;;;23.04;51.59
21728;BME280;11026;50.560;17.852;2023-07-31T09:18:06;99247.91;;;22.80;53.55
21728;BME280;11026;50.560;17.852;2023-07-31T09:20:33;99249.53;;;22.73;54.74
21728;BME280;11026;50.560;17.852;2023-07-31T09:23:10;99245.53;;;22.77;51.71
21728;BME280;11026;50.560;17.852;2023-07-31T09:25:39;99250.13;;;22.67;53.41
21728;BME280;11026;50.560;17.852;2023-07-31T09:28:08;99259.16;;;22.76;52.36
21728;BME280;11026;50.560;17.852;2023-07-31T09:30:48;99255.59;;;23.03;51.34
21728;BME280;11026;50.560;17.852;2023-07-31T09:33:19;99250.00;;;22.87;49.87
21728;BME280;11026;50.560;17.852;2023-07-31T09:35:47;99243.38;;;22.81;51.89
21728;BME280;11026;50.560;17.852;2023-07-31T09:38:20;99260.59;;;22.98;49.89
21728;BME280;11026;50.560;17.852;2023-07-31T09:40:48;99251.41;;;22.91;48.66
21728;BME280;11026;50.560;17.852;2023-07-31T09:43:20;99246.28;;;22.88;50.11
21728;BME280;11026;50.560;17.852;2023-07-31T09:45:48;99253.25;;;23.08;51.49
21728;BME280;11026;50.560;17.852;2023-07-31T09:48:20;99258.91;;;23.15;49.30
21728;BME280;11026;50.560;17.852;2023-07-31T09:50:53;99244.72;;;22.95;48.81
21728;BME280;11026;50.560;17.852;2023-07-31T09:53:28;99230.88;;;22.80;48.82
21728;BME280;11026;50.560;17.852;2023-07-31T09:56:00;99234.94;;;22.94;50.12
21728;BME280;11026;50.560;17.852;2023-07-31T09:58:29;99233.56;;;22.80;48.70
21728;BME280;11026;50.560;17.852;2023-07-31T10:00:58;99238.78;;;22.64;49.77
21728;BME280;11026;50.560;17.852;2023-07-31T10:03:27;99238.88;;;22.54;50.12
21728;BME280;11026;50.560;17.852;2023-07-31T10:05:57;99241.28;;;22.75;51.00
21728;BME280;11026;50.560;17.852;2023-07-31T10:08:28;99232.06;;;22.95;49.65
21728;BME280;11026;50.560;17.852;2023-07-31T10:11:01;99238.09;;;23.07;50.05
21728;BME280;11026;50.560;17.852;2023-07-31T10:13:34;99244.16;;;22.91;48.10
21728;BME280;11026;50.560;17.852;2023-07-31T10:16:03;99248.78;;;22.81;48.53
21728;BME280;11026;50.560;17.852;2023-07-31T10:18:31;99233.28;;;22.83;49.06
21728;BME280;11026;50.560;17.852;2023-07-31T10:21:00;99234.13;;;22.66;48.23
21728;BME280;11026;50.560;17.852;2023-07-31T10:23:27;99232.72;;;22.79;49.41
21728;BME280;11026;50.560;17.852;2023-07-31T10:25:57;99229.91;;;22.81;48.50
21728;BME280;11026;50.560;17.852;2023-07-31T10:28:26;99231.03;;;22.78;50.02
21728;BME280;11026;50.560;17.852;2023-07-31T10:30:54;99244.91;;;22.83;49.63
21728;BME280;11026;50.560;17.852;2023-07-31T10:33:22;99237.94;;;22.63;49.15
21728;BME280;11026;50.560;17.852;2023-07-31T10:35:50;99240.47;;;22.47;49.10
21728;BME280;11026;50.560;17.852;2023-07-31T10:38:23;99241.66;;;22.34;49.52
21728;BME280;11026;50.560;17.852;2023-07-31T10:40:52;99239.53;;;22.38;49.77
21728;BME280;11026;50.560;17.852;2023-07-31T10:43:26;99237.13;;;22.35;49.66
21728;BME280;11026;50.560;17.852;2023-07-31T10:45:54;99231.38;;;22.48;49.79
21728;BME280;11026;50.560;17.852;2023-07-31T10:48:21;99240.16;;;22.50;50.06
21728;BME280;11026;50.560;17.852;2023-07-31T10:50:54;99241.56;;;22.54;51.69
21728;BME280;11026;50.560;17.852;2023-07-31T10:55:59;99221.78;;;22.36;51.26
21728;BME280;11026;50.560;17.852;2023-07-31T10:58:27;99233.47;;;22.54;52.71
21728;BME280;11026;50.560;17.852;2023-07-31T11:01:01;99239.44;;;22.48;53.12
21728;BME280;11026;50.560;17.852;2023-07-31T11:03:47;99231.16;;;22.59;53.95
21728;BME280;11026;50.560;17.852;2023-07-31T11:06:16;99228.00;;;22.64;53.64
21728;BME280;11026;50.560;17.852;2023-07-31T11:08:47;99228.78;;;22.28;54.70
21728;BME280;11026;50.560;17.852;2023-07-31T11:11:17;99219.78;;;22.65;55.81
21728;BME280;11026;50.560;17.852;2023-07-31T11:13:50;99220.19;;;22.43;54.66
21728;BME280;11026;50.560;17.852;2023-07-31T11:16:25;99229.97;;;22.16;55.94
21728;BME280;11026;50.560;17.852;2023-07-31T11:18:53;99235.22;;;22.08;57.39
21728;BME280;11026;50.560;17.852;2023-07-31T11:21:24;99236.50;;;21.67;57.88
21728;BME280;11026;50.560;17.852;2023-07-31T11:23:54;99228.94;;;21.80;58.14
21728;BME280;11026;50.560;17.852;2023-07-31T11:26:25;99215.66;;;21.69;58.39
21728;BME280;11026;50.560;17.852;2023-07-31T11:28:53;99214.53;;;21.71;59.57
21728;BME280;11026;50.560;17.852;2023-07-31T11:31:21;99213.84;;;21.97;59.46
21728;BME280;11026;50.560;17.852;2023-07-31T11:33:50;99209.59;;;22.14;58.54
21728;BME280;11026;50.560;17.852;2023-07-31T11:36:19;99204.81;;;21.98;58.17
21728;BME280;11026;50.560;17.852;2023-07-31T11:38:46;99209.59;;;22.59;57.47
21728;BME280;11026;50.560;17.852;2023-07-31T11:41:20;99200.50;;;23.31;56.40
21728;BME280;11026;50.560;17.852;2023-07-31T11:43:48;99208.88;;;23.90;55.15
21728;BME280;11026;50.560;17.852;2023-07-31T11:46:16;99186.00;;;24.11;54.63
21728;BME280;11026;50.560;17.852;2023-07-31T11:48:45;99185.66;;;24.05;53.10
21728;BME280;11026;50.560;17.852;2023-07-31T11:51:13;99184.66;;;23.54;53.64
21728;BME280;11026;50.560;17.852;2023-07-31T11:53:51;99165.00;;;23.36;54.30
21728;BME280;11026;50.560;17.852;2023-07-31T11:56:20;99179.84;;;23.40;54.02
21728;BME280;11026;50.560;17.852;2023-07-31T11:58:51;99168.94;;;23.50;54.06
21728;BME280;11026;50.560;17.852;2023-07-31T12:01:21;99171.47;;;23.69;54.32
21728;BME280;11026;50.560;17.852;2023-07-31T12:03:50;99172.78;;;23.47;54.42
21728;BME280;11026;50.560;17.852;2023-07-31T12:06:18;99168.28;;;23.74;54.15
21728;BME280;11026;50.560;17.852;2023-07-31T12:08:48;99164.50;;;23.41;55.47
21728;BME280;11026;50.560;17.852;2023-07-31T12:11:18;99162.72;;;23.49;55.61
21728;BME280;11026;50.560;17.852;2023-07-31T12:13:45;99166.06;;;23.69;55.42
21728;BME280;11026;50.560;17.852;2023-07-31T12:16:14;99157.34;;;23.58;55.53
21728;BME280;11026;50.560;17.852;2023-07-31T12:18:41;99146.53;;;23.84;54.20
21728;BME280;11026;50.560;17.852;2023-07-31T12:21:09;99142.69;;;23.60;53.81
21728;BME280;11026;50.560;17.852;2023-07-31T12:23:38;99156.25;;;23.42;54.96
21728;BME280;11026;50.560;17.852;2023-07-31T12:26:16;99147.66;;;23.47;53.30
21728;BME280;11026;50.560;17.852;2023-07-31T12:28:50;99133.44;;;23.37;52.87
21728;BME280;11026;50.560;17.852;2023-07-31T12:31:20;99126.34;;;23.88;53.55
21728;BME280;11026;50.560;17.852;2023-07-31T12:33:50;99126.66;;;23.59;52.77
21728;BME280;11026;50.560;17.852;2023-07-31T12:36:20;99139.56;;;23.47;53.47
21728;BME280;11026;50.560;17.852;2023-07-31T12:38:49;99129.06;;;23.44;53.56
21728;BME280;11026;50.560;17.852;2023-07-31T12:41:17;99142.53;;;23.36;53.35
21728;BME280;11026;50.560;17.852;2023-07-31T12:43:45;99126.03;;;22.95;54.26
21728;BME280;11026;50.560;17.852;2023-07-31T12:46:13;99123.09;;;23.06;54.70
21728;BME280;11026;50.560;17.852;2023-07-31T12:48:41;99114.25;;;23.48;54.03
21728;BME280;11026;50.560;17.852;2023-07-31T12:51:15;99115.84;;;23.85;53.83
21728;BME280;11026;50.560;17.852;2023-07-31T12:53:42;99114.38;;;23.98;53.12
21728;BME280;11026;50.560;17.852;2023-07-31T12:56:10;99116.38;;;23.62;53.20
21728;BME280;11026;50.560;17.852;2023-07-31T12:58:37;99126.22;;;23.71;52.48
21728;BME280;11026;50.560;17.852;2023-07-31T13:01:05;99109.22;;;23.79;52.29
21728;BME280;11026;50.560;17.852;2023-07-31T13:03:35;99099.69;;;24.01;52.57
21728;BME280;11026;50.560;17.852;2023-07-31T13:06:08;99102.34;;;23.85;53.20
21728;BME280;11026;50.560;17.852;2023-07-31T13:08:36;99099.53;;;24.11;52.38
21728;BME280;11026;50.560;17.852;2023-07-31T13:11:04;99095.47;;;24.73;52.12
21728;BME280;11026;50.560;17.852;2023-07-31T13:13:33;99087.00;;;24.60;51.07
21728;BME280;11026;50.560;17.852;2023-07-31T13:16:00;99086.16;;;24.68;51.67
21728;BME280;11026;50.560;17.852;2023-07-31T13:18:28;99081.22;;;25.37;51.07
21728;BME280;11026;50.560;17.852;2023-07-31T13:20:55;99082.75;;;25.39;51.36
21728;BME280;11026;50.560;17.852;2023-07-31T13:23:22;99079.22;;;25.86;49.74
21728;BME280;11026;50.560;17.852;2023-07-31T13:25:50;99091.03;;;26.24;48.60